Time;durP1;ratioP1;P1;durP2;ratioP2;P2;SDS_P1;SDS_P2;PMS_P1;PMS_P2;Temp;Humidity;BMP_temperature;BMP_pressure;BME280_temperature;BME280_humidity;BME280_pressure;Samples;Min_cycle;Max_cycle;Signal;HPM_P1;HPM_P2
2022/10/29 00:01:17;;;;;;;16.88;7.65;;;18.50;99.90;;;;;;5052016;28;20029;-64
2022/10/29 00:03:43;;;;;;;11.18;6.28;;;18.50;99.90;;;;;;5053157;28;20029;-65
2022/10/29 00:06:10;;;;;;;15.15;6.70;;;18.50;99.90;;;;;;5053416;28;20077;-66
2022/10/29 00:08:37;;;;;;;14.75;7.15;;;18.50;99.90;;;;;;5053413;28;20082;-64
2022/10/29 00:11:23;;;;;;;13.75;6.60;;;18.50;99.90;;;;;;5053203;28;20021;-67
2022/10/29 00:13:53;;;;;;;19.67;7.45;;;18.50;99.90;;;;;;5052898;28;20044;-65
2022/10/29 00:16:22;;;;;;;19.45;7.55;;;18.50;99.90;;;;;;5053031;28;20029;-63
2022/10/29 00:18:48;;;;;;;12.32;7.00;;;18.40;99.90;;;;;;5053114;28;20096;-65
2022/10/29 00:21:16;;;;;;;13.25;7.78;;;18.40;99.90;;;;;;5052987;28;20596;-63
2022/10/29 00:23:41;;;;;;;14.70;7.43;;;18.40;99.90;;;;;;5052900;28;20067;-70
2022/10/29 00:26:07;;;;;;;16.40;6.95;;;18.40;99.90;;;;;;5052961;28;20145;-66
2022/10/29 00:28:33;;;;;;;15.52;7.65;;;18.40;99.90;;;;;;5052417;28;20039;-70
2022/10/29 00:31:08;;;;;;;13.55;7.63;;;18.40;99.90;;;;;;5052359;28;20041;-65
2022/10/29 00:33:34;;;;;;;14.50;7.30;;;18.30;99.90;;;;;;5051858;28;20025;-67
2022/10/29 00:36:12;;;;;;;16.13;6.90;;;18.30;99.90;;;;;;5052951;28;20496;-65
2022/10/29 00:38:37;;;;;;;16.25;7.43;;;18.30;99.90;;;;;;5052860;28;20485;-64
2022/10/29 00:41:06;;;;;;;16.92;6.28;;;18.30;99.90;;;;;;5052933;28;20031;-74
2022/10/29 00:43:33;;;;;;;12.93;6.53;;;18.30;99.90;;;;;;5052723;28;20103;-65
2022/10/29 00:46:00;;;;;;;13.63;6.95;;;18.30;99.90;;;;;;5052394;28;20022;-69
2022/10/29 00:48:28;;;;;;;14.38;6.80;;;18.30;99.90;;;;;;5053369;28;20083;-73
2022/10/29 00:50:56;;;;;;;14.02;6.15;;;18.30;99.90;;;;;;5052687;28;20032;-67
2022/10/29 00:53:27;;;;;;;12.93;6.88;;;18.30;99.90;;;;;;5052831;28;20112;-63
2022/10/29 00:55:53;;;;;;;11.10;7.15;;;18.30;99.90;;;;;;5052524;28;20389;-63
2022/10/29 00:58:20;;;;;;;13.20;6.00;;;18.20;99.90;;;;;;5052722;28;20017;-63
2022/10/29 01:00:46;;;;;;;14.32;7.28;;;18.20;99.90;;;;;;5052462;28;20085;-65
2022/10/29 01:03:11;;;;;;;16.40;6.53;;;18.20;99.90;;;;;;5053090;28;20025;-64
2022/10/29 01:05:38;;;;;;;10.93;6.40;;;18.20;99.90;;;;;;5051387;28;20025;-67
2022/10/29 01:08:04;;;;;;;12.00;6.63;;;18.20;99.90;;;;;;5052618;28;20386;-66
2022/10/29 01:11:01;;;;;;;13.23;6.40;;;18.10;99.90;;;;;;5052504;28;20052;-64
2022/10/29 01:13:53;;;;;;;18.52;8.15;;;18.20;99.90;;;;;;5052972;28;20067;-64
2022/10/29 01:16:21;;;;;;;14.30;7.10;;;18.20;99.90;;;;;;5052355;28;20440;-63
2022/10/29 01:18:58;;;;;;;14.45;7.80;;;18.10;99.90;;;;;;5052537;28;20027;-64
2022/10/29 01:21:43;;;;;;;17.25;8.35;;;18.10;99.90;;;;;;5052538;28;20021;-64
2022/10/29 01:24:43;;;;;;;13.55;8.13;;;18.10;99.90;;;;;;5052172;28;20073;-65
2022/10/29 01:27:27;;;;;;;14.07;7.43;;;18.10;99.90;;;;;;5052370;28;20077;-66
2022/10/29 01:30:20;;;;;;;13.60;7.40;;;18.00;99.90;;;;;;5051950;28;20025;-63
2022/10/29 01:33:03;;;;;;;13.65;7.93;;;18.10;99.90;;;;;;5052589;28;20029;-64
2022/10/29 01:35:48;;;;;;;14.55;7.45;;;18.00;99.90;;;;;;5052533;28;20051;-68
2022/10/29 01:38:37;;;;;;;15.10;7.40;;;18.00;99.90;;;;;;5052444;28;20022;-68
2022/10/29 01:41:07;;;;;;;15.88;8.93;;;18.00;99.90;;;;;;5043359;28;20033;-69
2022/10/29 01:43:37;;;;;;;23.58;7.93;;;18.00;99.90;;;;;;5055903;28;20029;-63
2022/10/29 01:46:20;;;;;;;12.80;8.07;;;18.00;99.90;;;;;;5055828;28;20108;-80
2022/10/29 01:48:53;;;;;;;15.00;7.50;;;18.00;99.90;;;;;;5056065;28;20024;-63
2022/10/29 01:51:29;;;;;;;15.95;7.85;;;18.00;99.90;;;;;;5055668;28;20108;-76
2022/10/29 01:53:57;;;;;;;20.90;7.70;;;17.90;99.90;;;;;;5055844;28;20025;-63
2022/10/29 01:56:23;;;;;;;15.13;7.95;;;17.90;99.90;;;;;;5055687;28;20056;-64
2022/10/29 01:58:54;;;;;;;18.10;8.13;;;17.90;99.90;;;;;;5055594;28;20057;-65
2022/10/29 02:01:50;;;;;;;13.20;7.30;;;17.90;99.90;;;;;;5055529;28;20033;-64
2022/10/29 02:04:23;;;;;;;17.63;7.75;;;17.90;99.90;;;;;;5055563;28;20488;-69
2022/10/29 02:07:16;;;;;;;18.02;7.75;;;17.90;99.90;;;;;;5055608;28;20114;-63
2022/10/29 02:10:14;;;;;;;17.95;7.78;;;17.90;99.90;;;;;;5055602;28;20040;-63
2022/10/29 02:12:48;;;;;;;14.25;6.88;;;17.90;99.90;;;;;;5055365;28;20024;-63
2022/10/29 02:15:32;;;;;;;17.77;8.98;;;17.90;99.90;;;;;;5055222;28;20013;-65
2022/10/29 02:18:02;;;;;;;17.88;8.35;;;17.90;99.90;;;;;;5055529;28;20025;-67
2022/10/29 02:20:28;;;;;;;16.85;8.05;;;17.80;99.90;;;;;;5055168;28;20027;-68
2022/10/29 02:22:54;;;;;;;19.08;9.88;;;17.80;99.90;;;;;;5055286;28;20040;-72
2022/10/29 02:25:20;;;;;;;18.85;8.57;;;17.80;99.90;;;;;;5055193;28;20032;-69
2022/10/29 02:27:45;;;;;;;21.73;8.85;;;17.80;99.90;;;;;;5054967;28;20037;-66
2022/10/29 02:30:11;;;;;;;21.17;8.00;;;17.80;99.90;;;;;;5054998;28;20024;-64
2022/10/29 02:32:36;;;;;;;12.27;8.13;;;17.80;99.90;;;;;;5055156;28;20386;-65
2022/10/29 02:35:03;;;;;;;17.50;7.88;;;17.80;99.90;;;;;;5053955;28;20028;-71
2022/10/29 02:37:29;;;;;;;16.65;8.55;;;17.80;99.90;;;;;;5055095;28;20036;-63
2022/10/29 02:39:54;;;;;;;20.35;7.80;;;17.80;99.90;;;;;;5055000;28;20302;-72
2022/10/29 02:42:21;;;;;;;16.25;7.15;;;17.70;99.90;;;;;;5054078;28;20025;-71
2022/10/29 02:44:46;;;;;;;17.73;7.00;;;17.80;99.90;;;;;;5055170;28;20021;-70
2022/10/29 02:47:12;;;;;;;13.02;6.70;;;17.70;99.90;;;;;;5055004;28;20075;-72
2022/10/29 02:49:37;;;;;;;14.65;6.70;;;17.70;99.90;;;;;;5054860;28;20075;-64
2022/10/29 02:52:03;;;;;;;17.25;8.00;;;17.70;99.90;;;;;;5054139;28;20521;-63
2022/10/29 02:54:29;;;;;;;23.70;8.00;;;17.70;99.90;;;;;;5054880;28;20033;-67
2022/10/29 02:56:54;;;;;;;23.38;8.77;;;17.70;99.90;;;;;;5054429;28;20091;-64
2022/10/29 02:59:20;;;;;;;18.02;8.93;;;17.70;99.90;;;;;;5054572;28;20028;-64
2022/10/29 03:01:45;;;;;;;23.45;8.63;;;17.70;99.90;;;;;;5054341;28;20094;-68
2022/10/29 03:04:11;;;;;;;20.02;8.93;;;17.70;99.90;;;;;;5054529;28;20117;-70
2022/10/29 03:06:37;;;;;;;19.98;9.25;;;17.70;99.90;;;;;;5054466;28;20501;-69
2022/10/29 03:09:03;;;;;;;18.35;9.15;;;17.70;99.90;;;;;;5053235;28;20486;-64
2022/10/29 03:11:29;;;;;;;26.23;10.10;;;17.60;99.90;;;;;;5054338;28;20033;-71
2022/10/29 03:13:55;;;;;;;16.88;9.10;;;17.70;99.90;;;;;;5053025;28;20021;-70
2022/10/29 03:16:20;;;;;;;17.65;8.60;;;17.70;99.90;;;;;;5054305;28;20032;-72
2022/10/29 03:18:46;;;;;;;23.08;8.52;;;17.70;99.90;;;;;;5054295;28;20021;-64
2022/10/29 03:21:11;;;;;;;20.10;9.10;;;17.70;99.90;;;;;;5054100;28;20028;-65
2022/10/29 03:23:37;;;;;;;21.45;8.82;;;17.60;99.90;;;;;;5052992;28;20021;-64
2022/10/29 03:26:02;;;;;;;15.77;8.68;;;17.60;99.90;;;;;;5052588;28;20370;-64
2022/10/29 03:28:29;;;;;;;18.48;9.50;;;17.60;99.90;;;;;;5052599;28;20128;-68
2022/10/29 03:30:56;;;;;;;23.10;8.75;;;17.70;99.90;;;;;;5054019;28;20532;-69
2022/10/29 03:33:22;;;;;;;19.80;9.02;;;17.70;99.90;;;;;;5053770;28;20098;-65
2022/10/29 03:35:48;;;;;;;16.02;8.20;;;17.70;99.90;;;;;;5054203;28;20017;-65
2022/10/29 03:38:13;;;;;;;15.48;8.52;;;17.70;99.90;;;;;;5054030;28;20526;-64
2022/10/29 03:40:39;;;;;;;15.13;8.70;;;17.60;99.90;;;;;;5045706;28;20021;-67
2022/10/29 03:43:05;;;;;;;18.90;7.88;;;17.70;99.90;;;;;;5047033;28;20014;-66
2022/10/29 03:45:30;;;;;;;16.77;8.48;;;17.70;99.90;;;;;;5052086;28;20430;-65
2022/10/29 03:47:56;;;;;;;15.65;8.50;;;17.70;99.90;;;;;;5050662;28;20493;-66
2022/10/29 03:50:21;;;;;;;19.38;9.13;;;17.70;99.90;;;;;;5052346;28;20524;-64
2022/10/29 03:52:47;;;;;;;19.23;9.68;;;17.60;99.90;;;;;;5053694;28;20031;-67
2022/10/29 03:55:12;;;;;;;23.88;10.27;;;17.60;99.90;;;;;;5053149;28;20024;-65
2022/10/29 03:57:38;;;;;;;20.52;9.45;;;17.60;99.90;;;;;;5053516;28;20401;-64
2022/10/29 04:00:04;;;;;;;21.98;9.15;;;17.60;99.90;;;;;;5053816;28;20115;-64
2022/10/29 04:02:29;;;;;;;17.23;8.98;;;17.60;99.90;;;;;;5053203;28;20059;-64
2022/10/29 04:04:55;;;;;;;18.80;8.27;;;17.60;99.90;;;;;;5052713;28;20033;-63
2022/10/29 04:07:21;;;;;;;21.02;7.70;;;17.60;99.90;;;;;;5052035;28;20035;-66
2022/10/29 04:09:46;;;;;;;15.27;7.75;;;17.60;99.90;;;;;;5053056;28;20382;-66
2022/10/29 04:12:12;;;;;;;15.43;7.47;;;17.60;99.90;;;;;;5053305;28;20028;-67
2022/10/29 04:14:37;;;;;;;12.85;6.85;;;17.50;99.90;;;;;;5053517;28;20100;-69
2022/10/29 04:17:03;;;;;;;16.20;6.55;;;17.60;99.90;;;;;;5053470;28;20103;-72
2022/10/29 04:19:28;;;;;;;20.58;7.47;;;17.60;99.90;;;;;;5053278;28;20045;-64
2022/10/29 04:21:54;;;;;;;17.13;7.00;;;17.60;99.90;;;;;;5053121;28;20088;-64
2022/10/29 04:24:19;;;;;;;19.13;7.07;;;17.50;99.90;;;;;;5052501;28;20508;-67
2022/10/29 04:26:45;;;;;;;23.83;7.72;;;17.60;99.90;;;;;;5053023;28;20520;-62
2022/10/29 04:29:11;;;;;;;19.90;7.50;;;17.50;99.90;;;;;;5053054;28;20389;-61
2022/10/29 04:31:36;;;;;;;17.45;7.45;;;17.60;99.90;;;;;;5051804;28;20374;-70
2022/10/29 04:34:02;;;;;;;15.50;7.20;;;17.50;99.90;;;;;;5052852;28;20025;-62
2022/10/29 04:36:28;;;;;;;24.52;8.68;;;17.50;99.90;;;;;;5052710;28;20397;-62
2022/10/29 04:38:53;;;;;;;15.27;7.47;;;17.50;99.90;;;;;;5052673;28;20032;-61
2022/10/29 04:41:19;;;;;;;18.95;7.65;;;17.50;99.90;;;;;;5052740;28;20033;-62
2022/10/29 04:43:44;;;;;;;17.52;7.82;;;17.50;99.90;;;;;;5052913;28;20025;-62
2022/10/29 04:46:10;;;;;;;20.60;7.82;;;17.50;99.90;;;;;;5052849;28;20024;-70
2022/10/29 04:48:36;;;;;;;19.77;8.57;;;17.50;99.90;;;;;;5052745;28;20033;-64
2022/10/29 04:51:01;;;;;;;18.00;7.97;;;17.50;99.90;;;;;;5053022;28;20067;-64
2022/10/29 04:53:27;;;;;;;18.75;8.88;;;17.50;99.90;;;;;;5052447;28;20028;-62
2022/10/29 04:56:00;;;;;;;18.38;8.77;;;17.50;99.90;;;;;;5050914;28;20032;-67
2022/10/29 04:58:26;;;;;;;24.83;8.55;;;17.50;99.90;;;;;;5050217;28;20476;-77
2022/10/29 05:00:51;;;;;;;19.80;8.68;;;17.50;99.90;;;;;;5046598;28;20056;-77
2022/10/29 05:03:17;;;;;;;18.00;8.07;;;17.50;99.90;;;;;;5032973;28;20455;-65
2022/10/29 05:05:42;;;;;;;19.45;9.23;;;17.50;99.90;;;;;;5030855;28;20104;-68
2022/10/29 05:08:10;;;;;;;17.00;9.50;;;17.50;99.90;;;;;;5030874;28;20034;-64
2022/10/29 05:10:37;;;;;;;24.65;9.48;;;17.50;99.90;;;;;;5032895;28;20021;-69
2022/10/29 05:13:10;;;;;;;20.45;9.27;;;17.50;99.90;;;;;;5032538;28;20061;-67
2022/10/29 05:15:36;;;;;;;20.40;9.13;;;17.50;99.90;;;;;;5033924;28;20022;-73
2022/10/29 05:18:01;;;;;;;20.35;8.60;;;17.50;99.90;;;;;;5036452;28;20155;-65
2022/10/29 05:20:27;;;;;;;19.42;9.15;;;17.50;99.90;;;;;;5036061;28;20037;-63
2022/10/29 05:22:58;;;;;;;20.13;9.32;;;17.50;99.90;;;;;;5037123;28;20014;-62
2022/10/29 05:25:24;;;;;;;20.73;9.33;;;17.50;99.90;;;;;;5036174;28;20506;-72
2022/10/29 05:27:57;;;;;;;18.88;10.13;;;17.50;99.90;;;;;;5036402;28;20315;-70
2022/10/29 05:30:23;;;;;;;19.40;9.25;;;17.50;99.90;;;;;;5036126;28;20017;-61
2022/10/29 05:32:48;;;;;;;22.02;9.55;;;17.50;99.90;;;;;;5036459;28;20052;-62
2022/10/29 05:35:14;;;;;;;18.73;9.82;;;17.50;99.90;;;;;;5036072;28;20489;-70
2022/10/29 05:37:39;;;;;;;21.58;9.13;;;17.50;99.90;;;;;;5037214;28;20032;-64
2022/10/29 05:40:05;;;;;;;23.60;10.05;;;17.50;99.90;;;;;;5042128;28;20030;-67
2022/10/29 05:42:31;;;;;;;22.77;9.32;;;17.50;99.90;;;;;;5049774;28;20017;-65
2022/10/29 05:44:56;;;;;;;19.77;8.32;;;17.50;99.90;;;;;;5041512;28;20018;-63
2022/10/29 05:47:22;;;;;;;14.73;8.45;;;17.50;99.90;;;;;;5046053;28;20041;-66
2022/10/29 05:49:47;;;;;;;18.88;8.70;;;17.50;99.90;;;;;;5046820;28;20017;-69
2022/10/29 05:52:13;;;;;;;20.10;9.32;;;17.50;99.90;;;;;;5049320;28;20017;-70
2022/10/29 05:54:38;;;;;;;20.35;9.43;;;17.50;99.90;;;;;;5053424;28;20021;-63
2022/10/29 05:57:04;;;;;;;20.13;8.95;;;17.50;99.90;;;;;;5035379;28;20033;-66
2022/10/29 05:59:29;;;;;;;20.23;9.43;;;17.50;99.90;;;;;;5051998;28;20017;-63
2022/10/29 06:01:55;;;;;;;19.90;9.13;;;17.50;99.90;;;;;;5055475;28;20029;-64
2022/10/29 06:04:21;;;;;;;20.70;10.10;;;17.50;99.90;;;;;;5041419;28;20108;-65
2022/10/29 06:06:46;;;;;;;17.48;8.82;;;17.50;99.90;;;;;;5055058;28;20108;-62
2022/10/29 06:09:12;;;;;;;19.40;9.52;;;17.50;99.90;;;;;;5051858;28;20432;-64
2022/10/29 06:11:37;;;;;;;21.63;9.75;;;17.50;99.90;;;;;;5049355;28;20032;-62
2022/10/29 06:14:03;;;;;;;17.85;9.73;;;17.50;99.90;;;;;;5040006;28;20509;-62
2022/10/29 06:16:28;;;;;;;14.93;9.30;;;17.40;99.90;;;;;;5054231;28;20032;-63
2022/10/29 06:18:55;;;;;;;18.63;9.63;;;17.50;99.90;;;;;;5046311;28;20027;-64
2022/10/29 06:21:20;;;;;;;18.38;9.77;;;17.40;99.90;;;;;;5038503;28;20021;-63
2022/10/29 06:23:46;;;;;;;16.85;9.00;;;17.50;99.90;;;;;;5054238;28;20052;-63
2022/10/29 06:26:11;;;;;;;20.27;10.13;;;17.40;99.90;;;;;;5053975;28;20048;-65
2022/10/29 06:28:37;;;;;;;20.42;10.27;;;17.50;99.90;;;;;;5052406;28;20056;-62
2022/10/29 06:31:02;;;;;;;17.02;8.68;;;17.50;99.90;;;;;;5053122;28;20029;-62
2022/10/29 06:33:28;;;;;;;17.25;9.48;;;17.50;99.90;;;;;;5054090;28;20075;-62
2022/10/29 06:35:58;;;;;;;19.75;10.18;;;17.50;99.90;;;;;;5046108;28;20022;-62
2022/10/29 06:38:23;;;;;;;18.23;9.15;;;17.50;99.90;;;;;;5049401;28;20017;-63
2022/10/29 06:40:52;;;;;;;18.67;9.80;;;17.40;99.90;;;;;;5053039;28;20389;-70
2022/10/29 06:43:18;;;;;;;17.88;8.65;;;17.40;99.90;;;;;;5064931;28;20079;-63
2022/10/29 06:45:44;;;;;;;16.52;9.57;;;17.40;99.90;;;;;;5055593;28;20024;-65
2022/10/29 06:48:09;;;;;;;20.73;10.15;;;17.40;99.90;;;;;;5044905;28;20033;-65
2022/10/29 06:50:35;;;;;;;18.77;9.70;;;17.40;99.90;;;;;;5049010;28;20028;-66
2022/10/29 06:53:05;;;;;;;17.67;10.35;;;17.40;99.90;;;;;;5042717;28;20027;-64
2022/10/29 06:55:32;;;;;;;18.60;9.57;;;17.40;99.90;;;;;;5051377;28;20078;-67
2022/10/29 06:57:59;;;;;;;21.52;10.13;;;17.40;99.90;;;;;;5047003;28;20029;-64
2022/10/29 07:00:26;;;;;;;19.73;10.27;;;17.40;99.90;;;;;;5053661;28;20469;-68
2022/10/29 07:02:52;;;;;;;24.23;11.85;;;17.40;99.90;;;;;;5053391;28;20032;-64
2022/10/29 07:05:18;;;;;;;22.13;11.55;;;17.40;99.90;;;;;;5053133;28;20017;-62
2022/10/29 07:07:43;;;;;;;27.77;10.90;;;17.20;99.90;;;;;;5048318;28;20155;-66
2022/10/29 07:10:09;;;;;;;19.88;10.60;;;17.00;99.90;;;;;;5049137;28;20508;-65
2022/10/29 07:12:42;;;;;;;20.63;11.30;;;17.10;99.90;;;;;;5053445;28;20090;-62
2022/10/29 07:15:08;;;;;;;18.65;11.05;;;17.30;99.90;;;;;;5053772;28;20071;-68
2022/10/29 07:17:34;;;;;;;17.00;9.80;;;17.30;99.90;;;;;;5050852;28;20037;-62
2022/10/29 07:20:00;;;;;;;21.48;10.85;;;17.30;99.90;;;;;;5049394;28;20013;-62
2022/10/29 07:22:25;;;;;;;22.00;10.43;;;17.40;99.90;;;;;;5053548;28;20451;-62
2022/10/29 07:24:51;;;;;;;23.58;11.15;;;17.40;99.90;;;;;;5039729;28;20060;-62
2022/10/29 07:27:16;;;;;;;23.60;10.98;;;17.40;99.90;;;;;;5042196;28;20539;-62
2022/10/29 07:29:42;;;;;;;19.02;10.10;;;17.30;99.90;;;;;;5044200;28;20025;-63
2022/10/29 07:32:07;;;;;;;22.92;11.73;;;17.40;99.90;;;;;;5046233;28;20021;-65
2022/10/29 07:34:33;;;;;;;20.75;11.15;;;17.40;99.90;;;;;;5046837;28;20351;-64
2022/10/29 07:36:58;;;;;;;26.48;11.52;;;17.40;99.90;;;;;;5040347;28;20032;-61
2022/10/29 07:39:24;;;;;;;25.23;11.68;;;17.40;99.90;;;;;;5041507;28;20430;-65
2022/10/29 07:41:49;;;;;;;22.67;12.50;;;17.40;99.90;;;;;;5041175;28;20421;-63
2022/10/29 07:44:15;;;;;;;25.23;12.00;;;17.40;99.90;;;;;;5037812;28;20036;-63
2022/10/29 07:46:40;;;;;;;21.05;10.95;;;17.40;99.90;;;;;;5040724;28;20029;-67
2022/10/29 07:49:06;;;;;;;21.13;10.50;;;17.50;99.90;;;;;;5049855;28;20468;-67
2022/10/29 07:51:32;;;;;;;28.45;9.77;;;17.50;99.90;;;;;;5043466;28;20028;-65
2022/10/29 07:53:57;;;;;;;15.27;9.48;;;17.50;99.90;;;;;;5048967;28;20051;-63
2022/10/29 07:56:23;;;;;;;19.17;9.40;;;17.50;99.90;;;;;;5043102;28;20124;-71
2022/10/29 07:58:48;;;;;;;17.35;9.32;;;17.50;99.90;;;;;;5043624;28;20025;-64
2022/10/29 08:01:14;;;;;;;21.23;10.43;;;17.50;99.90;;;;;;5052624;28;20016;-63
2022/10/29 08:03:39;;;;;;;18.33;10.15;;;17.50;99.90;;;;;;5047979;28;20029;-63
2022/10/29 08:06:05;;;;;;;23.48;10.40;;;17.50;99.90;;;;;;5044304;28;20017;-65
2022/10/29 08:08:33;;;;;;;17.00;8.88;;;17.60;99.90;;;;;;5045534;28;20505;-68
2022/10/29 08:11:01;;;;;;;19.73;10.02;;;17.60;99.90;;;;;;5052075;28;20064;-69
2022/10/29 08:13:26;;;;;;;19.13;9.82;;;17.60;99.90;;;;;;5055140;28;20039;-66
2022/10/29 08:15:52;;;;;;;18.42;9.93;;;17.60;99.90;;;;;;5050239;28;20032;-62
2022/10/29 08:18:17;;;;;;;19.92;9.05;;;17.60;99.90;;;;;;5068303;28;20024;-63
2022/10/29 08:20:44;;;;;;;19.70;8.65;;;17.60;99.90;;;;;;5055217;28;20025;-62
2022/10/29 08:23:10;;;;;;;15.77;9.25;;;17.60;99.90;;;;;;5058977;28;20161;-65
2022/10/29 08:25:40;;;;;;;17.25;8.57;;;17.60;99.90;;;;;;5052960;28;20037;-64
2022/10/29 08:28:07;;;;;;;24.60;9.55;;;17.70;99.90;;;;;;5047086;28;20106;-64
2022/10/29 08:30:33;;;;;;;16.05;8.77;;;17.70;99.90;;;;;;5050360;28;20056;-63
2022/10/29 08:32:59;;;;;;;18.40;8.35;;;17.70;99.90;;;;;;5050307;28;20056;-69
2022/10/29 08:35:25;;;;;;;17.77;8.30;;;17.80;99.90;;;;;;5058822;28;20017;-62
2022/10/29 08:37:50;;;;;;;20.90;9.00;;;17.80;99.90;;;;;;5053084;28;20370;-69
2022/10/29 08:40:41;;;;;;;19.95;8.10;;;17.80;99.90;;;;;;5052062;28;20071;-63
2022/10/29 08:43:33;;;;;;;17.75;7.70;;;17.80;99.90;;;;;;5069417;28;20477;-66
2022/10/29 08:45:59;;;;;;;15.43;8.10;;;17.90;99.90;;;;;;5047066;28;20031;-68
2022/10/29 08:48:37;;;;;;;20.45;7.70;;;17.90;99.90;;;;;;5047952;28;20041;-64
2022/10/29 08:51:14;;;;;;;15.13;8.90;;;17.90;99.90;;;;;;5046936;28;20037;-80
2022/10/29 08:53:46;;;;;;;19.77;8.25;;;17.90;99.90;;;;;;5038984;28;20054;-71
2022/10/29 08:56:25;;;;;;;19.40;8.30;;;18.00;99.90;;;;;;5043949;28;20033;-70
2022/10/29 08:59:12;;;;;;;18.00;7.63;;;17.90;99.90;;;;;;5046872;28;20028;-67
2022/10/29 09:01:38;;;;;;;16.50;7.32;;;18.00;99.90;;;;;;5049092;28;20071;-68
2022/10/29 09:04:11;;;;;;;15.70;7.50;;;18.00;99.90;;;;;;5054493;28;20501;-67
2022/10/29 09:07:00;;;;;;;16.85;8.20;;;18.00;99.90;;;;;;5053350;28;20539;-68
2022/10/29 09:09:33;;;;;;;15.40;8.05;;;18.00;99.90;;;;;;5052170;28;20059;-68
2022/10/29 09:12:23;;;;;;;17.77;7.63;;;18.00;99.90;;;;;;5045513;28;20025;-65
2022/10/29 09:14:57;;;;;;;21.67;8.48;;;18.00;99.90;;;;;;5043824;28;20543;-63
2022/10/29 09:17:38;;;;;;;16.08;7.07;;;18.10;99.90;;;;;;5053578;28;20033;-63
2022/10/29 09:20:39;;;;;;;14.48;7.03;;;18.10;99.90;;;;;;5049655;28;20029;-63
2022/10/29 09:23:17;;;;;;;11.75;7.80;;;18.10;99.90;;;;;;5042859;28;20024;-64
2022/10/29 09:26:01;;;;;;;16.35;8.43;;;18.10;99.90;;;;;;5048082;28;20051;-61
2022/10/29 09:28:47;;;;;;;26.00;9.38;;;18.10;99.90;;;;;;5042350;28;20045;-63
2022/10/29 09:31:15;;;;;;;22.40;8.75;;;18.10;99.90;;;;;;5040688;28;20017;-62
2022/10/29 09:33:50;;;;;;;14.18;8.05;;;18.10;99.90;;;;;;5045198;28;20032;-61
2022/10/29 09:36:22;;;;;;;22.23;8.25;;;18.20;99.90;;;;;;5046262;28;20024;-63
2022/10/29 09:38:58;;;;;;;33.65;9.40;;;18.20;99.90;;;;;;5052159;28;20021;-63
2022/10/29 09:41:32;;;;;;;18.10;7.90;;;18.20;99.90;;;;;;5057599;28;20060;-64
2022/10/29 09:44:02;;;;;;;16.17;7.82;;;18.20;99.90;;;;;;5062276;28;20542;-62
2022/10/29 09:47:05;;;;;;;12.90;6.65;;;18.20;99.90;;;;;;5052844;28;20125;-68
2022/10/29 09:49:37;;;;;;;;;;;18.30;99.90;;;;;;5046800;28;20589;-64
2022/10/29 09:52:31;;;;;;;19.73;6.68;;;18.20;99.90;;;;;;5040282;28;19958;-68
2022/10/29 09:54:59;;;;;;;19.48;7.93;;;18.20;99.90;;;;;;5047127;28;20889;-61
2022/10/29 09:57:30;;;;;;;16.00;7.13;;;18.20;99.90;;;;;;5042511;28;20039;-62
2022/10/29 10:00:00;;;;;;;12.30;6.53;;;18.30;99.90;;;;;;5048715;28;20536;-68
2022/10/29 10:02:42;;;;;;;12.38;6.03;;;18.30;99.90;;;;;;5045888;28;20041;-76
2022/10/29 10:05:11;;;;;;;13.40;6.38;;;18.30;99.90;;;;;;5042995;28;20056;-77
2022/10/29 10:07:36;;;;;;;12.40;6.35;;;18.40;99.90;;;;;;5060268;28;20111;-67
2022/10/29 10:10:05;;;;;;;13.88;6.65;;;18.40;99.90;;;;;;5045906;28;20034;-71
2022/10/29 10:12:37;;;;;;;13.85;6.78;;;18.40;99.90;;;;;;5046885;28;20060;-75
2022/10/29 10:15:06;;;;;;;12.43;5.85;;;18.50;99.90;;;;;;5049789;28;20020;-63
2022/10/29 10:17:57;;;;;;;11.23;5.80;;;18.50;99.90;;;;;;5047275;28;20037;-73
2022/10/29 10:20:34;;;;;;;17.40;6.25;;;18.50;99.90;;;;;;5053630;28;20387;-63
2022/10/29 10:23:00;;;;;;;15.43;5.60;;;18.50;99.90;;;;;;5049763;28;20493;-74
2022/10/29 10:25:37;;;;;;;17.70;5.80;;;18.50;99.90;;;;;;5056446;28;20100;-75
2022/10/29 10:28:18;;;;;;;14.55;5.65;;;18.60;99.90;;;;;;5058380;28;20038;-67
2022/10/29 10:30:45;;;;;;;20.73;9.23;;;18.60;99.90;;;;;;5064406;28;20032;-72
2022/10/29 10:33:24;;;;;;;111.30;70.93;;;18.60;99.90;;;;;;5055813;28;20098;-62
2022/10/29 10:35:53;;;;;;;210.35;119.55;;;18.60;99.90;;;;;;5049258;28;20122;-74
2022/10/29 10:38:19;;;;;;;102.47;58.33;;;18.60;99.90;;;;;;5056598;28;20108;-62
2022/10/29 10:40:54;;;;;;;43.50;21.55;;;18.70;99.90;;;;;;5058585;28;20490;-61
2022/10/29 10:43:23;;;;;;;88.22;51.55;;;18.70;99.90;;;;;;5052400;28;20574;-62
2022/10/29 10:45:58;;;;;;;105.15;59.63;;;18.70;99.90;;;;;;5045204;28;20041;-64
2022/10/29 10:48:26;;;;;;;82.30;45.80;;;18.80;99.90;;;;;;5048582;28;20548;-64
2022/10/29 10:51:09;;;;;;;57.75;35.28;;;18.70;99.90;;;;;;5050096;28;20021;-73
2022/10/29 10:53:37;;;;;;;79.85;44.83;;;18.80;99.90;;;;;;5048304;28;20025;-71
2022/10/29 10:56:03;;;;;;;87.90;49.00;;;18.80;99.90;;;;;;5064844;28;20046;-64
2022/10/29 10:58:40;;;;;;;39.72;19.23;;;18.80;99.90;;;;;;5061959;28;20111;-65
2022/10/29 11:01:10;;;;;;;52.53;29.20;;;18.90;99.90;;;;;;5053181;28;20029;-65
2022/10/29 11:03:47;;;;;;;51.33;31.85;;;18.90;99.90;;;;;;5070698;28;20478;-68
2022/10/29 11:06:44;;;;;;;42.97;23.67;;;18.90;99.90;;;;;;5052007;28;20024;-68
2022/10/29 11:09:30;;;;;;;15.15;8.93;;;18.90;99.90;;;;;;5043046;28;20476;-63
2022/10/29 11:12:04;;;;;;;42.05;20.80;;;19.00;99.90;;;;;;5041676;28;20031;-62
2022/10/29 11:14:35;;;;;;;25.48;13.65;;;19.00;99.90;;;;;;5043012;28;20028;-62
2022/10/29 11:17:04;;;;;;;31.30;13.77;;;19.00;99.90;;;;;;5045849;28;20029;-63
2022/10/29 11:19:37;;;;;;;16.20;9.00;;;19.00;99.90;;;;;;5048390;28;20082;-62
2022/10/29 11:22:18;;;;;;;25.92;11.90;;;19.00;99.90;;;;;;5049317;28;20489;-70
2022/10/29 11:24:48;;;;;;;21.60;9.55;;;19.10;99.90;;;;;;5042871;28;20432;-71
2022/10/29 11:27:39;;;;;;;15.55;9.75;;;19.10;99.90;;;;;;5045980;28;20037;-64
2022/10/29 11:30:13;;;;;;;18.48;8.93;;;19.10;99.90;;;;;;5057065;28;20029;-62
2022/10/29 11:33:08;;;;;;;11.93;5.93;;;19.10;99.90;;;;;;5043705;28;20086;-64
2022/10/29 11:35:44;;;;;;;17.17;6.22;;;19.20;99.90;;;;;;5051227;28;20051;-69
2022/10/29 11:38:10;;;;;;;20.60;7.22;;;19.20;99.90;;;;;;5046266;28;20068;-67
2022/10/29 11:41:17;;;;;;;13.05;5.28;;;19.20;99.90;;;;;;5046592;28;20052;-64
2022/10/29 11:43:46;;;;;;;15.70;5.40;;;19.20;99.90;;;;;;5044181;28;20029;-65
2022/10/29 11:46:27;;;;;;;20.48;5.93;;;19.20;99.90;;;;;;5046203;28;20060;-75
2022/10/29 11:49:21;;;;;;;14.85;5.97;;;19.30;99.90;;;;;;5038426;28;20071;-77
2022/10/29 11:52:12;;;;;;;14.38;6.95;;;19.30;99.90;;;;;;5050531;28;20047;-62
2022/10/29 11:55:15;;;;;;;16.98;7.35;;;19.30;99.90;;;;;;5035629;28;20082;-68
2022/10/29 11:57:49;;;;;;;15.75;6.88;;;19.30;99.90;;;;;;5039587;28;20040;-65
2022/10/29 12:00:19;;;;;;;14.98;6.85;;;19.40;99.90;;;;;;5039677;28;20032;-76
2022/10/29 12:03:06;;;;;;;13.13;6.43;;;19.40;99.90;;;;;;5044184;28;20022;-62
2022/10/29 12:06:07;;;;;;;13.82;5.63;;;19.40;99.90;;;;;;5046063;28;20036;-63
2022/10/29 12:09:02;;;;;;;14.18;6.25;;;19.40;99.90;;;;;;5042317;28;20076;-65
2022/10/29 12:11:48;;;;;;;14.45;5.72;;;19.40;99.90;;;;;;5038765;28;20043;-74
2022/10/29 12:14:21;;;;;;;14.10;5.78;;;19.50;99.90;;;;;;5046788;28;20032;-67
2022/10/29 12:17:05;;;;;;;12.68;5.50;;;19.50;99.90;;;;;;5041503;28;20025;-70
2022/10/29 12:19:42;;;;;;;13.85;5.43;;;19.50;99.90;;;;;;5042815;28;20021;-62
2022/10/29 12:22:11;;;;;;;12.75;4.28;;;19.50;99.90;;;;;;5039579;28;21657;-67
2022/10/29 12:25:05;;;;;;;10.88;5.22;;;19.60;99.90;;;;;;5055098;28;20028;-62
2022/10/29 12:28:03;;;;;;;12.65;4.28;;;19.60;99.90;;;;;;5053498;28;20127;-74
2022/10/29 12:30:34;;;;;;;11.23;4.90;;;19.60;99.90;;;;;;5054484;28;20470;-64
2022/10/29 12:33:22;;;;;;;14.93;4.72;;;19.60;99.90;;;;;;5053339;28;20275;-64
2022/10/29 12:36:02;;;;;;;14.15;5.13;;;19.70;99.90;;;;;;5040958;28;20462;-62
2022/10/29 12:38:50;;;;;;;16.05;4.20;;;19.70;99.90;;;;;;5045849;28;20029;-69
2022/10/29 12:41:30;;;;;;;13.52;5.35;;;19.70;99.90;;;;;;5054721;28;20052;-62
2022/10/29 12:44:29;;;;;;;11.27;4.25;;;19.70;99.90;;;;;;5050875;28;20092;-64
2022/10/29 12:47:07;;;;;;;11.23;3.97;;;19.70;99.90;;;;;;5055644;28;20040;-67
2022/10/29 12:49:45;;;;;;;11.38;4.07;;;19.80;99.90;;;;;;5047884;28;20120;-63
2022/10/29 12:52:25;;;;;;;13.00;4.45;;;19.80;99.90;;;;;;5048304;28;20037;-62
2022/10/29 12:54:52;;;;;;;13.95;4.05;;;19.80;99.90;;;;;;5050449;28;20026;-62
2022/10/29 12:57:31;;;;;;;11.70;4.47;;;19.80;99.90;;;;;;5053682;28;20106;-62